sensor_id;sensor_type;location;lat;lon;timestamp;temperature;humidity
33269;DHT22;19640;50.944;5.260;2024-01-25T00:01:08;9.90;99.90
33269;DHT22;19640;50.944;5.260;2024-01-25T00:03:35;10.00;99.90
33269;DHT22;19640;50.944;5.260;2024-01-25T00:06:00;9.90;99.90
33269;DHT22;19640;50.944;5.260;2024-01-25T00:08:26;9.80;99.90
33269;DHT22;19640;50.944;5.260;2024-01-25T00:10:52;9.90;99.90
33269;DHT22;19640;50.944;5.260;2024-01-25T00:13:17;10.10;99.90
33269;DHT22;19640;50.944;5.260;2024-01-25T00:15:43;9.90;99.90
33269;DHT22;19640;50.944;5.260;2024-01-25T00:18:09;9.80;99.90
33269;DHT22;19640;50.944;5.260;2024-01-25T00:20:34;9.70;99.90
33269;DHT22;19640;50.944;5.260;2024-01-25T00:23:00;9.50;99.90
33269;DHT22;19640;50.944;5.260;2024-01-25T00:25:26;9.50;99.90
33269;DHT22;19640;50.944;5.260;2024-01-25T00:27:52;9.80;99.90
33269;DHT22;19640;50.944;5.260;2024-01-25T00:30:18;9.90;99.90
33269;DHT22;19640;50.944;5.260;2024-01-25T00:32:44;10.00;99.90
33269;DHT22;19640;50.944;5.260;2024-01-25T00:35:10;9.90;99.90
33269;DHT22;19640;50.944;5.260;2024-01-25T00:37:37;9.90;99.90
33269;DHT22;19640;50.944;5.260;2024-01-25T00:40:03;9.50;99.90
33269;DHT22;19640;50.944;5.260;2024-01-25T00:42:30;9.40;99.90
33269;DHT22;19640;50.944;5.260;2024-01-25T00:44:56;9.20;99.90
33269;DHT22;19640;50.944;5.260;2024-01-25T00:47:22;9.40;99.90
33269;DHT22;19640;50.944;5.260;2024-01-25T00:49:48;9.60;99.90
33269;DHT22;19640;50.944;5.260;2024-01-25T00:52:14;9.60;99.90
33269;DHT22;19640;50.944;5.260;2024-01-25T00:54:40;9.60;99.90
33269;DHT22;19640;50.944;5.260;2024-01-25T00:57:07;9.20;99.90
33269;DHT22;19640;50.944;5.260;2024-01-25T00:59:33;9.00;99.90
33269;DHT22;19640;50.944;5.260;2024-01-25T01:01:59;8.90;99.90
33269;DHT22;19640;50.944;5.260;2024-01-25T01:04:26;9.00;99.90
33269;DHT22;19640;50.944;5.260;2024-01-25T01:06:52;8.90;99.90
33269;DHT22;19640;50.944;5.260;2024-01-25T01:09:18;8.90;99.90
33269;DHT22;19640;50.944;5.260;2024-01-25T01:11:43;8.90;99.90
33269;DHT22;19640;50.944;5.260;2024-01-25T01:14:09;9.00;99.90
33269;DHT22;19640;50.944;5.260;2024-01-25T01:16:35;8.80;99.90
33269;DHT22;19640;50.944;5.260;2024-01-25T01:19:01;9.00;99.90
33269;DHT22;19640;50.944;5.260;2024-01-25T01:21:32;9.10;99.90
33269;DHT22;19640;50.944;5.260;2024-01-25T01:23:58;9.20;99.90
33269;DHT22;19640;50.944;5.260;2024-01-25T01:26:24;9.00;99.90
33269;DHT22;19640;50.944;5.260;2024-01-25T01:28:49;8.90;99.90
33269;DHT22;19640;50.944;5.260;2024-01-25T01:31:15;9.20;99.90
33269;DHT22;19640;50.944;5.260;2024-01-25T01:33:40;9.10;99.90
33269;DHT22;19640;50.944;5.260;2024-01-25T01:36:06;8.90;99.90
33269;DHT22;19640;50.944;5.260;2024-01-25T01:38:32;8.80;99.90
33269;DHT22;19640;50.944;5.260;2024-01-25T01:40:58;9.20;99.90
33269;DHT22;19640;50.944;5.260;2024-01-25T01:43:23;9.10;99.90
33269;DHT22;19640;50.944;5.260;2024-01-25T01:45:49;9.00;99.90
33269;DHT22;19640;50.944;5.260;2024-01-25T01:48:16;8.90;99.90
33269;DHT22;19640;50.944;5.260;2024-01-25T01:50:43;9.10;99.90
33269;DHT22;19640;50.944;5.260;2024-01-25T01:53:10;8.80;99.90
33269;DHT22;19640;50.944;5.260;2024-01-25T01:55:36;8.40;99.90
33269;DHT22;19640;50.944;5.260;2024-01-25T01:58:02;8.20;99.90
33269;DHT22;19640;50.944;5.260;2024-01-25T02:00:30;8.30;99.90
33269;DHT22;19640;50.944;5.260;2024-01-25T02:02:56;8.70;99.90
33269;DHT22;19640;50.944;5.260;2024-01-25T02:05:23;8.60;99.90
33269;DHT22;19640;50.944;5.260;2024-01-25T02:07:50;8.70;99.90
33269;DHT22;19640;50.944;5.260;2024-01-25T02:10:17;8.80;99.90
33269;DHT22;19640;50.944;5.260;2024-01-25T02:12:43;8.90;99.90
33269;DHT22;19640;50.944;5.260;2024-01-25T02:15:09;8.90;99.90
33269;DHT22;19640;50.944;5.260;2024-01-25T02:17:34;8.60;99.90
33269;DHT22;19640;50.944;5.260;2024-01-25T02:20:00;8.60;99.90
33269;DHT22;19640;50.944;5.260;2024-01-25T02:22:28;8.60;99.90
33269;DHT22;19640;50.944;5.260;2024-01-25T02:24:54;8.60;99.90
33269;DHT22;19640;50.944;5.260;2024-01-25T02:27:20;8.60;99.90
33269;DHT22;19640;50.944;5.260;2024-01-25T02:29:45;8.40;99.90
33269;DHT22;19640;50.944;5.260;2024-01-25T02:32:11;8.60;99.90
33269;DHT22;19640;50.944;5.260;2024-01-25T02:34:37;8.60;99.90
33269;DHT22;19640;50.944;5.260;2024-01-25T02:37:03;8.60;99.90
33269;DHT22;19640;50.944;5.260;2024-01-25T02:39:28;8.50;99.90
33269;DHT22;19640;50.944;5.260;2024-01-25T02:41:54;8.60;99.90
33269;DHT22;19640;50.944;5.260;2024-01-25T02:44:20;8.50;99.90
33269;DHT22;19640;50.944;5.260;2024-01-25T02:46:45;8.30;99.90
33269;DHT22;19640;50.944;5.260;2024-01-25T02:49:12;8.40;99.90
33269;DHT22;19640;50.944;5.260;2024-01-25T02:51:38;8.20;99.90
33269;DHT22;19640;50.944;5.260;2024-01-25T02:54:03;8.20;99.90
33269;DHT22;19640;50.944;5.260;2024-01-25T02:56:29;7.90;99.90
33269;DHT22;19640;50.944;5.260;2024-01-25T02:59:01;7.80;99.90
33269;DHT22;19640;50.944;5.260;2024-01-25T03:01:27;8.30;99.90
33269;DHT22;19640;50.944;5.260;2024-01-25T03:03:53;8.60;99.90
33269;DHT22;19640;50.944;5.260;2024-01-25T03:06:19;8.70;99.90
33269;DHT22;19640;50.944;5.260;2024-01-25T03:08:45;8.60;99.90
33269;DHT22;19640;50.944;5.260;2024-01-25T03:11:11;8.50;99.90
33269;DHT22;19640;50.944;5.260;2024-01-25T03:13:36;8.20;99.90
33269;DHT22;19640;50.944;5.260;2024-01-25T03:16:02;7.90;99.90
33269;DHT22;19640;50.944;5.260;2024-01-25T03:18:28;7.60;99.90
33269;DHT22;19640;50.944;5.260;2024-01-25T03:20:53;7.50;99.90
33269;DHT22;19640;50.944;5.260;2024-01-25T03:23:19;7.40;99.90
33269;DHT22;19640;50.944;5.260;2024-01-25T03:25:45;7.20;99.90
33269;DHT22;19640;50.944;5.260;2024-01-25T03:28:11;7.00;99.90
33269;DHT22;19640;50.944;5.260;2024-01-25T03:30:39;6.90;99.90
33269;DHT22;19640;50.944;5.260;2024-01-25T03:33:05;6.80;99.90
33269;DHT22;19640;50.944;5.260;2024-01-25T03:35:31;6.70;99.90
33269;DHT22;19640;50.944;5.260;2024-01-25T03:37:56;6.70;99.90
33269;DHT22;19640;50.944;5.260;2024-01-25T03:40:22;6.50;99.90
33269;DHT22;19640;50.944;5.260;2024-01-25T03:42:48;6.50;99.90
33269;DHT22;19640;50.944;5.260;2024-01-25T03:45:13;6.40;99.90
33269;DHT22;19640;50.944;5.260;2024-01-25T03:47:39;6.40;99.90
33269;DHT22;19640;50.944;5.260;2024-01-25T03:50:05;6.20;99.90
33269;DHT22;19640;50.944;5.260;2024-01-25T03:52:31;5.80;99.90
33269;DHT22;19640;50.944;5.260;2024-01-25T03:54:57;5.60;99.90
33269;DHT22;19640;50.944;5.260;2024-01-25T03:57:23;5.70;99.90
33269;DHT22;19640;50.944;5.260;2024-01-25T03:59:48;5.90;99.90
33269;DHT22;19640;50.944;5.260;2024-01-25T04:02:14;5.90;99.90
33269;DHT22;19640;50.944;5.260;2024-01-25T04:04:40;5.50;99.90
33269;DHT22;19640;50.944;5.260;2024-01-25T04:07:05;5.00;99.90
33269;DHT22;19640;50.944;5.260;2024-01-25T04:09:31;4.80;99.90
33269;DHT22;19640;50.944;5.260;2024-01-25T04:11:57;4.90;99.90
33269;DHT22;19640;50.944;5.260;2024-01-25T04:14:22;5.10;99.90
33269;DHT22;19640;50.944;5.260;2024-01-25T04:16:49;5.20;99.90
33269;DHT22;19640;50.944;5.260;2024-01-25T04:19:14;5.10;99.90
33269;DHT22;19640;50.944;5.260;2024-01-25T04:21:40;5.10;99.90
33269;DHT22;19640;50.944;5.260;2024-01-25T04:24:06;5.20;99.90
33269;DHT22;19640;50.944;5.260;2024-01-25T04:26:32;5.20;99.90
33269;DHT22;19640;50.944;5.260;2024-01-25T04:28:57;5.30;99.90
33269;DHT22;19640;50.944;5.260;2024-01-25T04:31:23;5.20;99.90
33269;DHT22;19640;50.944;5.260;2024-01-25T04:33:49;5.30;99.90
33269;DHT22;19640;50.944;5.260;2024-01-25T04:36:14;5.40;99.90
33269;DHT22;19640;50.944;5.260;2024-01-25T04:38:40;5.00;99.90
33269;DHT22;19640;50.944;5.260;2024-01-25T04:41:06;4.50;99.90
33269;DHT22;19640;50.944;5.260;2024-01-25T04:43:35;4.20;99.90
33269;DHT22;19640;50.944;5.260;2024-01-25T04:46:04;4.40;99.90
33269;DHT22;19640;50.944;5.260;2024-01-25T04:48:30;4.70;99.90
33269;DHT22;19640;50.944;5.260;2024-01-25T04:50:57;4.80;99.90
33269;DHT22;19640;50.944;5.260;2024-01-25T04:53:25;4.60;99.90
33269;DHT22;19640;50.944;5.260;2024-01-25T04:55:53;4.70;99.90
33269;DHT22;19640;50.944;5.260;2024-01-25T04:58:18;4.70;99.90
33269;DHT22;19640;50.944;5.260;2024-01-25T05:00:44;4.80;99.90
33269;DHT22;19640;50.944;5.260;2024-01-25T05:03:09;4.90;99.90
33269;DHT22;19640;50.944;5.260;2024-01-25T05:05:35;4.90;99.90
33269;DHT22;19640;50.944;5.260;2024-01-25T05:08:01;5.00;99.90
33269;DHT22;19640;50.944;5.260;2024-01-25T05:10:26;5.00;99.90
33269;DHT22;19640;50.944;5.260;2024-01-25T05:12:52;5.10;99.90
33269;DHT22;19640;50.944;5.260;2024-01-25T05:15:18;5.10;99.90
33269;DHT22;19640;50.944;5.260;2024-01-25T05:17:44;4.90;99.90
33269;DHT22;19640;50.944;5.260;2024-01-25T05:20:10;4.80;99.90
33269;DHT22;19640;50.944;5.260;2024-01-25T05:22:35;4.80;99.90
33269;DHT22;19640;50.944;5.260;2024-01-25T05:25:06;4.80;99.90
33269;DHT22;19640;50.944;5.260;2024-01-25T05:27:33;4.80;99.90
33269;DHT22;19640;50.944;5.260;2024-01-25T05:29:59;5.00;99.90
33269;DHT22;19640;50.944;5.260;2024-01-25T05:32:25;5.20;99.90
33269;DHT22;19640;50.944;5.260;2024-01-25T05:34:50;5.20;99.90
33269;DHT22;19640;50.944;5.260;2024-01-25T05:37:16;5.20;99.90
33269;DHT22;19640;50.944;5.260;2024-01-25T05:39:41;5.20;99.90
33269;DHT22;19640;50.944;5.260;2024-01-25T05:42:07;5.30;99.90
33269;DHT22;19640;50.944;5.260;2024-01-25T05:44:34;5.30;99.90
33269;DHT22;19640;50.944;5.260;2024-01-25T05:46:59;5.30;99.90
33269;DHT22;19640;50.944;5.260;2024-01-25T05:49:25;5.10;99.90
33269;DHT22;19640;50.944;5.260;2024-01-25T05:51:51;5.10;99.90
33269;DHT22;19640;50.944;5.260;2024-01-25T05:54:17;5.10;99.90
33269;DHT22;19640;50.944;5.260;2024-01-25T05:56:42;5.20;99.90
33269;DHT22;19640;50.944;5.260;2024-01-25T05:59:08;5.30;99.90
33269;DHT22;19640;50.944;5.260;2024-01-25T06:01:34;5.30;99.90
33269;DHT22;19640;50.944;5.260;2024-01-25T06:04:00;5.10;99.90
33269;DHT22;19640;50.944;5.260;2024-01-25T06:06:25;5.10;99.90
33269;DHT22;19640;50.944;5.260;2024-01-25T06:08:51;5.20;99.90
33269;DHT22;19640;50.944;5.260;2024-01-25T06:11:17;5.20;99.90
33269;DHT22;19640;50.944;5.260;2024-01-25T06:13:42;5.20;99.90
33269;DHT22;19640;50.944;5.260;2024-01-25T06:16:08;5.20;99.90
33269;DHT22;19640;50.944;5.260;2024-01-25T06:18:34;5.30;99.90
33269;DHT22;19640;50.944;5.260;2024-01-25T06:20:59;5.20;99.90
33269;DHT22;19640;50.944;5.260;2024-01-25T06:23:25;5.10;99.90
33269;DHT22;19640;50.944;5.260;2024-01-25T06:25:51;5.10;99.90
33269;DHT22;19640;50.944;5.260;2024-01-25T06:28:16;5.00;99.90
33269;DHT22;19640;50.944;5.260;2024-01-25T06:30:42;5.00;99.90
33269;DHT22;19640;50.944;5.260;2024-01-25T06:33:07;4.90;99.90
33269;DHT22;19640;50.944;5.260;2024-01-25T06:35:33;4.80;99.90
33269;DHT22;19640;50.944;5.260;2024-01-25T06:37:59;4.80;99.90
33269;DHT22;19640;50.944;5.260;2024-01-25T06:40:25;4.70;99.90
33269;DHT22;19640;50.944;5.260;2024-01-25T06:42:50;4.70;99.90
33269;DHT22;19640;50.944;5.260;2024-01-25T06:45:16;4.60;99.90
33269;DHT22;19640;50.944;5.260;2024-01-25T06:47:43;4.70;99.90
33269;DHT22;19640;50.944;5.260;2024-01-25T06:50:08;4.70;99.90
33269;DHT22;19640;50.944;5.260;2024-01-25T06:52:34;4.70;99.90
33269;DHT22;19640;50.944;5.260;2024-01-25T06:55:00;4.70;99.90
33269;DHT22;19640;50.944;5.260;2024-01-25T06:57:26;4.80;99.90
33269;DHT22;19640;50.944;5.260;2024-01-25T06:59:52;4.90;99.90
33269;DHT22;19640;50.944;5.260;2024-01-25T07:02:17;4.90;99.90
33269;DHT22;19640;50.944;5.260;2024-01-25T07:04:43;5.00;99.90
33269;DHT22;19640;50.944;5.260;2024-01-25T07:07:09;5.20;99.90
33269;DHT22;19640;50.944;5.260;2024-01-25T07:09:35;5.10;99.90
33269;DHT22;19640;50.944;5.260;2024-01-25T07:12:01;5.10;99.90
33269;DHT22;19640;50.944;5.260;2024-01-25T07:14:26;4.90;99.90
33269;DHT22;19640;50.944;5.260;2024-01-25T07:16:52;4.90;99.90
33269;DHT22;19640;50.944;5.260;2024-01-25T07:19:18;5.20;99.90
33269;DHT22;19640;50.944;5.260;2024-01-25T07:21:43;5.30;99.90
33269;DHT22;19640;50.944;5.260;2024-01-25T07:24:11;5.30;99.90
33269;DHT22;19640;50.944;5.260;2024-01-25T07:26:36;5.20;99.90
33269;DHT22;19640;50.944;5.260;2024-01-25T07:29:03;5.10;99.90
33269;DHT22;19640;50.944;5.260;2024-01-25T07:31:28;4.90;99.90
33269;DHT22;19640;50.944;5.260;2024-01-25T07:33:54;4.90;99.90
33269;DHT22;19640;50.944;5.260;2024-01-25T07:36:21;4.80;99.90
33269;DHT22;19640;50.944;5.260;2024-01-25T07:38:46;4.90;99.90
33269;DHT22;19640;50.944;5.260;2024-01-25T07:41:17;5.10;99.90
33269;DHT22;19640;50.944;5.260;2024-01-25T07:43:42;5.10;99.90
33269;DHT22;19640;50.944;5.260;2024-01-25T07:46:09;5.00;99.90
33269;DHT22;19640;50.944;5.260;2024-01-25T07:48:35;4.70;99.90
33269;DHT22;19640;50.944;5.260;2024-01-25T07:51:01;4.70;99.90
33269;DHT22;19640;50.944;5.260;2024-01-25T07:53:27;4.50;99.90
33269;DHT22;19640;50.944;5.260;2024-01-25T07:55:52;4.70;99.90
33269;DHT22;19640;50.944;5.260;2024-01-25T07:58:18;4.90;99.90
33269;DHT22;19640;50.944;5.260;2024-01-25T08:00:44;4.90;99.90
33269;DHT22;19640;50.944;5.260;2024-01-25T08:03:11;5.00;99.90
33269;DHT22;19640;50.944;5.260;2024-01-25T08:05:37;5.20;99.90
33269;DHT22;19640;50.944;5.260;2024-01-25T08:08:02;5.30;99.90
33269;DHT22;19640;50.944;5.260;2024-01-25T08:10:28;5.10;99.90
33269;DHT22;19640;50.944;5.260;2024-01-25T08:12:54;4.90;99.90
33269;DHT22;19640;50.944;5.260;2024-01-25T08:15:20;4.80;99.90
33269;DHT22;19640;50.944;5.260;2024-01-25T08:17:45;4.90;99.90
33269;DHT22;19640;50.944;5.260;2024-01-25T08:20:11;5.10;99.90
33269;DHT22;19640;50.944;5.260;2024-01-25T08:22:40;5.40;99.90
33269;DHT22;19640;50.944;5.260;2024-01-25T08:25:07;5.40;99.90
33269;DHT22;19640;50.944;5.260;2024-01-25T08:27:33;5.40;99.90
33269;DHT22;19640;50.944;5.260;2024-01-25T08:29:59;5.60;99.90
33269;DHT22;19640;50.944;5.260;2024-01-25T08:32:25;5.10;99.90
33269;DHT22;19640;50.944;5.260;2024-01-25T08:34:50;4.90;99.90
33269;DHT22;19640;50.944;5.260;2024-01-25T08:37:16;5.30;99.90
33269;DHT22;19640;50.944;5.260;2024-01-25T08:39:42;5.30;99.90
33269;DHT22;19640;50.944;5.260;2024-01-25T08:42:08;5.50;99.90
33269;DHT22;19640;50.944;5.260;2024-01-25T08:44:34;5.80;99.90
33269;DHT22;19640;50.944;5.260;2024-01-25T08:47:00;5.80;99.90
33269;DHT22;19640;50.944;5.260;2024-01-25T08:49:25;5.90;99.90
33269;DHT22;19640;50.944;5.260;2024-01-25T08:51:51;5.90;99.90
33269;DHT22;19640;50.944;5.260;2024-01-25T08:54:17;5.90;99.90
33269;DHT22;19640;50.944;5.260;2024-01-25T08:56:42;5.80;99.90
33269;DHT22;19640;50.944;5.260;2024-01-25T08:59:08;5.90;99.90
33269;DHT22;19640;50.944;5.260;2024-01-25T09:01:34;6.20;99.90
33269;DHT22;19640;50.944;5.260;2024-01-25T09:03:59;6.40;99.90
33269;DHT22;19640;50.944;5.260;2024-01-25T09:06:29;6.60;99.90
33269;DHT22;19640;50.944;5.260;2024-01-25T09:08:55;6.60;99.90
33269;DHT22;19640;50.944;5.260;2024-01-25T09:11:21;6.60;99.90
33269;DHT22;19640;50.944;5.260;2024-01-25T09:13:47;6.70;99.90
33269;DHT22;19640;50.944;5.260;2024-01-25T09:16:13;6.70;99.90
33269;DHT22;19640;50.944;5.260;2024-01-25T09:18:39;6.70;99.90
33269;DHT22;19640;50.944;5.260;2024-01-25T09:21:05;6.90;99.90
33269;DHT22;19640;50.944;5.260;2024-01-25T09:23:30;6.90;99.90
33269;DHT22;19640;50.944;5.260;2024-01-25T09:25:56;6.90;99.90
33269;DHT22;19640;50.944;5.260;2024-01-25T09:28:22;7.00;99.90
33269;DHT22;19640;50.944;5.260;2024-01-25T09:30:47;6.90;99.90
33269;DHT22;19640;50.944;5.260;2024-01-25T09:33:14;6.70;99.90
33269;DHT22;19640;50.944;5.260;2024-01-25T09:35:40;6.70;99.90
33269;DHT22;19640;50.944;5.260;2024-01-25T09:38:06;6.70;99.90
33269;DHT22;19640;50.944;5.260;2024-01-25T09:40:31;6.90;99.90
33269;DHT22;19640;50.944;5.260;2024-01-25T09:42:59;7.10;99.90
33269;DHT22;19640;50.944;5.260;2024-01-25T09:45:24;7.20;99.90
33269;DHT22;19640;50.944;5.260;2024-01-25T09:47:50;7.30;99.90
33269;DHT22;19640;50.944;5.260;2024-01-25T09:50:16;7.30;99.90
33269;DHT22;19640;50.944;5.260;2024-01-25T09:52:53;7.30;99.90
33269;DHT22;19640;50.944;5.260;2024-01-25T09:55:24;7.60;99.90
33269;DHT22;19640;50.944;5.260;2024-01-25T09:57:54;7.60;99.90
33269;DHT22;19640;50.944;5.260;2024-01-25T10:00:22;7.60;99.90
33269;DHT22;19640;50.944;5.260;2024-01-25T10:02:48;7.40;99.90
33269;DHT22;19640;50.944;5.260;2024-01-25T10:05:15;7.50;99.90
33269;DHT22;19640;50.944;5.260;2024-01-25T10:07:43;7.60;99.90
33269;DHT22;19640;50.944;5.260;2024-01-25T10:10:10;7.50;99.90
33269;DHT22;19640;50.944;5.260;2024-01-25T10:12:37;7.70;99.90
33269;DHT22;19640;50.944;5.260;2024-01-25T10:15:04;7.70;99.90
33269;DHT22;19640;50.944;5.260;2024-01-25T10:17:30;7.50;99.90
33269;DHT22;19640;50.944;5.260;2024-01-25T10:19:56;7.50;99.90
33269;DHT22;19640;50.944;5.260;2024-01-25T10:22:22;7.80;99.90
33269;DHT22;19640;50.944;5.260;2024-01-25T10:24:48;7.70;99.90
33269;DHT22;19640;50.944;5.260;2024-01-25T10:27:18;7.90;99.90
33269;DHT22;19640;50.944;5.260;2024-01-25T10:29:44;8.10;99.90
33269;DHT22;19640;50.944;5.260;2024-01-25T10:32:10;8.10;99.90
33269;DHT22;19640;50.944;5.260;2024-01-25T10:34:36;7.80;99.90
33269;DHT22;19640;50.944;5.260;2024-01-25T10:37:07;7.80;99.90
33269;DHT22;19640;50.944;5.260;2024-01-25T10:39:33;7.90;99.90
33269;DHT22;19640;50.944;5.260;2024-01-25T10:41:59;8.20;99.90
33269;DHT22;19640;50.944;5.260;2024-01-25T10:44:26;8.10;99.90
33269;DHT22;19640;50.944;5.260;2024-01-25T10:46:51;8.20;99.90
33269;DHT22;19640;50.944;5.260;2024-01-25T10:49:19;8.30;99.90
33269;DHT22;19640;50.944;5.260;2024-01-25T10:51:46;8.30;99.90
33269;DHT22;19640;50.944;5.260;2024-01-25T10:54:12;8.00;99.90
33269;DHT22;19640;50.944;5.260;2024-01-25T10:56:43;8.00;99.90
33269;DHT22;19640;50.944;5.260;2024-01-25T10:59:10;8.20;99.90
33269;DHT22;19640;50.944;5.260;2024-01-25T11:01:36;8.00;99.90
33269;DHT22;19640;50.944;5.260;2024-01-25T11:04:02;8.00;99.90
33269;DHT22;19640;50.944;5.260;2024-01-25T11:06:28;8.20;99.90
33269;DHT22;19640;50.944;5.260;2024-01-25T11:09:06;8.30;99.90
33269;DHT22;19640;50.944;5.260;2024-01-25T11:11:32;8.50;99.90
33269;DHT22;19640;50.944;5.260;2024-01-25T11:14:01;8.60;99.90
33269;DHT22;19640;50.944;5.260;2024-01-25T11:16:31;8.70;99.90
33269;DHT22;19640;50.944;5.260;2024-01-25T11:19:00;8.70;99.90
33269;DHT22;19640;50.944;5.260;2024-01-25T11:21:52;8.80;99.90
33269;DHT22;19640;50.944;5.260;2024-01-25T11:24:23;8.80;99.90
33269;DHT22;19640;50.944;5.260;2024-01-25T11:26:50;8.80;99.90
33269;DHT22;19640;50.944;5.260;2024-01-25T11:29:16;9.10;99.90
33269;DHT22;19640;50.944;5.260;2024-01-25T11:31:46;9.10;99.90
33269;DHT22;19640;50.944;5.260;2024-01-25T11:34:14;9.40;99.90
33269;DHT22;19640;50.944;5.260;2024-01-25T11:36:40;9.30;99.90
33269;DHT22;19640;50.944;5.260;2024-01-25T11:39:09;9.20;99.90
33269;DHT22;19640;50.944;5.260;2024-01-25T11:41:35;9.30;99.90
33269;DHT22;19640;50.944;5.260;2024-01-25T11:44:02;9.50;99.90
33269;DHT22;19640;50.944;5.260;2024-01-25T11:46:29;9.60;99.90
33269;DHT22;19640;50.944;5.260;2024-01-25T11:48:55;9.60;99.90
33269;DHT22;19640;50.944;5.260;2024-01-25T11:51:21;9.60;99.90
33269;DHT22;19640;50.944;5.260;2024-01-25T11:53:47;9.40;99.90
33269;DHT22;19640;50.944;5.260;2024-01-25T11:56:21;9.50;99.90
33269;DHT22;19640;50.944;5.260;2024-01-25T11:58:47;9.70;99.90
33269;DHT22;19640;50.944;5.260;2024-01-25T12:01:13;9.70;99.90
33269;DHT22;19640;50.944;5.260;2024-01-25T12:03:40;9.60;99.90
33269;DHT22;19640;50.944;5.260;2024-01-25T12:06:06;9.80;99.90
33269;DHT22;19640;50.944;5.260;2024-01-25T12:08:35;9.90;99.90
33269;DHT22;19640;50.944;5.260;2024-01-25T12:11:05;10.00;99.90
33269;DHT22;19640;50.944;5.260;2024-01-25T12:13:35;10.30;99.90
33269;DHT22;19640;50.944;5.260;2024-01-25T12:16:02;10.30;99.90
33269;DHT22;19640;50.944;5.260;2024-01-25T12:18:29;10.50;99.90
33269;DHT22;19640;50.944;5.260;2024-01-25T12:21:02;10.30;99.90
33269;DHT22;19640;50.944;5.260;2024-01-25T12:23:35;10.30;99.90
33269;DHT22;19640;50.944;5.260;2024-01-25T12:26:08;10.00;99.90
33269;DHT22;19640;50.944;5.260;2024-01-25T12:28:34;10.00;99.90
33269;DHT22;19640;50.944;5.260;2024-01-25T12:31:01;10.20;99.90
33269;DHT22;19640;50.944;5.260;2024-01-25T12:33:28;10.30;99.90
33269;DHT22;19640;50.944;5.260;2024-01-25T12:35:54;10.30;99.90
33269;DHT22;19640;50.944;5.260;2024-01-25T12:38:21;10.40;99.90
33269;DHT22;19640;50.944;5.260;2024-01-25T12:40:48;10.40;99.90
33269;DHT22;19640;50.944;5.260;2024-01-25T12:43:15;10.50;99.90
33269;DHT22;19640;50.944;5.260;2024-01-25T12:45:41;10.60;99.90
33269;DHT22;19640;50.944;5.260;2024-01-25T12:48:07;10.70;99.90
33269;DHT22;19640;50.944;5.260;2024-01-25T12:50:34;10.80;99.90
33269;DHT22;19640;50.944;5.260;2024-01-25T12:53:01;10.90;99.90
33269;DHT22;19640;50.944;5.260;2024-01-25T12:55:28;10.50;99.90
33269;DHT22;19640;50.944;5.260;2024-01-25T12:57:54;10.30;99.90
33269;DHT22;19640;50.944;5.260;2024-01-25T13:00:21;10.40;99.90
33269;DHT22;19640;50.944;5.260;2024-01-25T13:02:47;10.40;99.90
33269;DHT22;19640;50.944;5.260;2024-01-25T13:05:14;10.30;99.90
33269;DHT22;19640;50.944;5.260;2024-01-25T13:07:39;10.30;99.90
33269;DHT22;19640;50.944;5.260;2024-01-25T13:10:06;10.20;99.90
33269;DHT22;19640;50.944;5.260;2024-01-25T13:12:31;10.20;99.90
33269;DHT22;19640;50.944;5.260;2024-01-25T13:14:57;10.10;99.90
33269;DHT22;19640;50.944;5.260;2024-01-25T13:17:23;10.20;99.90
33269;DHT22;19640;50.944;5.260;2024-01-25T13:19:50;10.40;99.90
33269;DHT22;19640;50.944;5.260;2024-01-25T13:22:16;10.20;99.90
33269;DHT22;19640;50.944;5.260;2024-01-25T13:24:50;10.10;99.90
33269;DHT22;19640;50.944;5.260;2024-01-25T13:27:16;10.30;99.90
33269;DHT22;19640;50.944;5.260;2024-01-25T13:29:42;10.30;99.90
33269;DHT22;19640;50.944;5.260;2024-01-25T13:32:09;10.30;99.90
33269;DHT22;19640;50.944;5.260;2024-01-25T13:34:35;10.20;99.90
33269;DHT22;19640;50.944;5.260;2024-01-25T13:37:00;10.10;99.90
33269;DHT22;19640;50.944;5.260;2024-01-25T13:39:26;10.10;99.90
33269;DHT22;19640;50.944;5.260;2024-01-25T13:41:52;10.10;99.90
33269;DHT22;19640;50.944;5.260;2024-01-25T13:44:18;10.10;99.90
33269;DHT22;19640;50.944;5.260;2024-01-25T13:46:43;10.00;99.90
33269;DHT22;19640;50.944;5.260;2024-01-25T13:49:09;9.70;99.90
33269;DHT22;19640;50.944;5.260;2024-01-25T13:51:35;9.60;99.90
33269;DHT22;19640;50.944;5.260;2024-01-25T13:54:01;9.60;99.90
33269;DHT22;19640;50.944;5.260;2024-01-25T13:56:27;9.60;99.90
33269;DHT22;19640;50.944;5.260;2024-01-25T13:58:52;9.40;99.90
33269;DHT22;19640;50.944;5.260;2024-01-25T14:01:19;9.50;99.90
33269;DHT22;19640;50.944;5.260;2024-01-25T14:03:45;9.70;99.90
33269;DHT22;19640;50.944;5.260;2024-01-25T14:06:10;9.90;99.90
33269;DHT22;19640;50.944;5.260;2024-01-25T14:08:36;9.80;99.90
33269;DHT22;19640;50.944;5.260;2024-01-25T14:11:03;10.00;99.90
33269;DHT22;19640;50.944;5.260;2024-01-25T14:13:29;10.00;99.90
33269;DHT22;19640;50.944;5.260;2024-01-25T14:15:55;10.10;99.90
33269;DHT22;19640;50.944;5.260;2024-01-25T14:18:21;10.00;99.90
33269;DHT22;19640;50.944;5.260;2024-01-25T14:20:46;10.00;99.90
33269;DHT22;19640;50.944;5.260;2024-01-25T14:23:12;10.00;99.90
33269;DHT22;19640;50.944;5.260;2024-01-25T14:25:38;10.10;99.90
33269;DHT22;19640;50.944;5.260;2024-01-25T14:28:03;10.00;99.90
33269;DHT22;19640;50.944;5.260;2024-01-25T14:30:29;10.00;99.90
33269;DHT22;19640;50.944;5.260;2024-01-25T14:32:55;9.70;99.90
33269;DHT22;19640;50.944;5.260;2024-01-25T14:35:23;9.80;99.90
33269;DHT22;19640;50.944;5.260;2024-01-25T14:37:54;9.90;99.90
33269;DHT22;19640;50.944;5.260;2024-01-25T14:40:21;10.10;99.90
33269;DHT22;19640;50.944;5.260;2024-01-25T14:42:47;10.10;99.90
33269;DHT22;19640;50.944;5.260;2024-01-25T14:45:12;10.00;99.90
33269;DHT22;19640;50.944;5.260;2024-01-25T14:47:38;10.20;99.90
33269;DHT22;19640;50.944;5.260;2024-01-25T14:50:05;10.10;99.90
33269;DHT22;19640;50.944;5.260;2024-01-25T14:52:30;10.20;99.90
33269;DHT22;19640;50.944;5.260;2024-01-25T14:55:00;10.30;99.90
33269;DHT22;19640;50.944;5.260;2024-01-25T14:57:26;10.30;99.90
33269;DHT22;19640;50.944;5.260;2024-01-25T14:59:52;10.30;99.90
33269;DHT22;19640;50.944;5.260;2024-01-25T15:02:17;10.40;99.90
33269;DHT22;19640;50.944;5.260;2024-01-25T15:04:44;10.30;99.90
33269;DHT22;19640;50.944;5.260;2024-01-25T15:07:09;10.40;99.90
33269;DHT22;19640;50.944;5.260;2024-01-25T15:09:35;10.50;99.90
33269;DHT22;19640;50.944;5.260;2024-01-25T15:12:01;10.50;99.90
33269;DHT22;19640;50.944;5.260;2024-01-25T15:14:27;10.50;99.90
33269;DHT22;19640;50.944;5.260;2024-01-25T15:16:53;10.30;99.90
33269;DHT22;19640;50.944;5.260;2024-01-25T15:19:18;10.10;99.90
33269;DHT22;19640;50.944;5.260;2024-01-25T15:21:45;10.20;99.90
33269;DHT22;19640;50.944;5.260;2024-01-25T15:24:11;10.20;99.90
33269;DHT22;19640;50.944;5.260;2024-01-25T15:26:40;10.40;99.90
33269;DHT22;19640;50.944;5.260;2024-01-25T15:29:06;10.10;99.90
33269;DHT22;19640;50.944;5.260;2024-01-25T15:31:32;10.30;99.90
33269;DHT22;19640;50.944;5.260;2024-01-25T15:33:57;10.30;99.90
33269;DHT22;19640;50.944;5.260;2024-01-25T15:36:23;10.40;99.90